sensor_id;sensor_type;location;lat;lon;timestamp;temperature;humidity
15217;DHT22;7711;46.634;14.318;2023-03-23T00:02:22;7.40;99.90
15217;DHT22;7711;46.634;14.318;2023-03-23T00:04:49;7.30;99.90
15217;DHT22;7711;46.634;14.318;2023-03-23T00:07:16;7.30;99.90
15217;DHT22;7711;46.634;14.318;2023-03-23T00:09:48;7.30;99.90
15217;DHT22;7711;46.634;14.318;2023-03-23T00:12:20;7.20;99.90
15217;DHT22;7711;46.634;14.318;2023-03-23T00:14:54;7.10;99.90
15217;DHT22;7711;46.634;14.318;2023-03-23T00:17:21;7.10;99.90
15217;DHT22;7711;46.634;14.318;2023-03-23T00:19:49;7.00;99.90
15217;DHT22;7711;46.634;14.318;2023-03-23T00:22:16;7.00;99.90
15217;DHT22;7711;46.634;14.318;2023-03-23T00:24:48;7.10;99.90
15217;DHT22;7711;46.634;14.318;2023-03-23T00:27:16;7.00;99.90
15217;DHT22;7711;46.634;14.318;2023-03-23T00:29:43;7.00;99.90
15217;DHT22;7711;46.634;14.318;2023-03-23T00:32:11;7.00;99.90
15217;DHT22;7711;46.634;14.318;2023-03-23T00:34:40;6.90;99.90
15217;DHT22;7711;46.634;14.318;2023-03-23T00:37:11;6.80;99.90
15217;DHT22;7711;46.634;14.318;2023-03-23T00:39:38;6.80;99.90
15217;DHT22;7711;46.634;14.318;2023-03-23T00:42:13;6.70;99.90
15217;DHT22;7711;46.634;14.318;2023-03-23T00:44:40;6.70;99.90
15217;DHT22;7711;46.634;14.318;2023-03-23T00:47:09;6.60;99.90
15217;DHT22;7711;46.634;14.318;2023-03-23T00:49:37;6.60;99.90
15217;DHT22;7711;46.634;14.318;2023-03-23T00:52:05;6.50;99.90
15217;DHT22;7711;46.634;14.318;2023-03-23T00:54:33;6.50;99.90
15217;DHT22;7711;46.634;14.318;2023-03-23T00:57:02;6.40;99.90
15217;DHT22;7711;46.634;14.318;2023-03-23T00:59:30;6.30;99.90
15217;DHT22;7711;46.634;14.318;2023-03-23T01:01:57;6.30;99.90
15217;DHT22;7711;46.634;14.318;2023-03-23T01:04:24;6.30;99.90
15217;DHT22;7711;46.634;14.318;2023-03-23T01:06:54;6.30;99.90
15217;DHT22;7711;46.634;14.318;2023-03-23T01:09:22;6.30;99.90
15217;DHT22;7711;46.634;14.318;2023-03-23T01:11:50;6.20;99.90
15217;DHT22;7711;46.634;14.318;2023-03-23T01:14:19;6.30;99.90
15217;DHT22;7711;46.634;14.318;2023-03-23T01:16:47;6.20;99.90
15217;DHT22;7711;46.634;14.318;2023-03-23T01:19:14;6.10;99.90
15217;DHT22;7711;46.634;14.318;2023-03-23T01:21:42;6.10;99.90
15217;DHT22;7711;46.634;14.318;2023-03-23T01:24:09;6.10;99.90
15217;DHT22;7711;46.634;14.318;2023-03-23T01:26:36;6.00;99.90
15217;DHT22;7711;46.634;14.318;2023-03-23T01:29:04;6.00;99.90
15217;DHT22;7711;46.634;14.318;2023-03-23T01:31:31;5.90;99.90
15217;DHT22;7711;46.634;14.318;2023-03-23T01:33:59;5.90;99.90
15217;DHT22;7711;46.634;14.318;2023-03-23T01:36:29;6.00;99.90
15217;DHT22;7711;46.634;14.318;2023-03-23T01:38:59;6.10;99.90
15217;DHT22;7711;46.634;14.318;2023-03-23T01:41:28;6.00;99.90
15217;DHT22;7711;46.634;14.318;2023-03-23T01:43:57;6.00;99.90
15217;DHT22;7711;46.634;14.318;2023-03-23T01:46:26;6.00;99.90
15217;DHT22;7711;46.634;14.318;2023-03-23T01:48:54;5.80;99.90
15217;DHT22;7711;46.634;14.318;2023-03-23T01:51:24;5.80;99.90
15217;DHT22;7711;46.634;14.318;2023-03-23T01:53:55;5.80;99.90
15217;DHT22;7711;46.634;14.318;2023-03-23T01:56:24;5.70;99.90
15217;DHT22;7711;46.634;14.318;2023-03-23T01:58:55;5.80;99.90
15217;DHT22;7711;46.634;14.318;2023-03-23T02:01:24;5.80;99.90
15217;DHT22;7711;46.634;14.318;2023-03-23T02:03:52;5.80;99.90
15217;DHT22;7711;46.634;14.318;2023-03-23T02:06:22;5.80;99.90
15217;DHT22;7711;46.634;14.318;2023-03-23T02:08:50;5.80;99.90
15217;DHT22;7711;46.634;14.318;2023-03-23T02:11:20;5.80;99.90
15217;DHT22;7711;46.634;14.318;2023-03-23T02:13:48;5.70;99.90
15217;DHT22;7711;46.634;14.318;2023-03-23T02:16:21;5.60;99.90
15217;DHT22;7711;46.634;14.318;2023-03-23T02:19:02;5.70;99.90
15217;DHT22;7711;46.634;14.318;2023-03-23T02:24:57;5.70;99.90
15217;DHT22;7711;46.634;14.318;2023-03-23T02:27:47;5.60;99.90
15217;DHT22;7711;46.634;14.318;2023-03-23T02:30:43;5.50;99.90
15217;DHT22;7711;46.634;14.318;2023-03-23T02:36:20;5.40;99.90
15217;DHT22;7711;46.634;14.318;2023-03-23T02:38:55;5.40;99.90
15217;DHT22;7711;46.634;14.318;2023-03-23T02:41:28;5.30;99.90
15217;DHT22;7711;46.634;14.318;2023-03-23T02:43:57;5.30;99.90
15217;DHT22;7711;46.634;14.318;2023-03-23T02:46:25;5.40;99.90
15217;DHT22;7711;46.634;14.318;2023-03-23T02:48:56;5.40;99.90
15217;DHT22;7711;46.634;14.318;2023-03-23T02:51:24;5.40;99.90
15217;DHT22;7711;46.634;14.318;2023-03-23T02:53:54;5.30;99.90
15217;DHT22;7711;46.634;14.318;2023-03-23T02:56:24;5.30;99.90
15217;DHT22;7711;46.634;14.318;2023-03-23T02:58:53;5.10;99.90
15217;DHT22;7711;46.634;14.318;2023-03-23T03:01:49;5.20;99.90
15217;DHT22;7711;46.634;14.318;2023-03-23T03:04:20;5.20;99.90
15217;DHT22;7711;46.634;14.318;2023-03-23T03:06:55;5.20;99.90
15217;DHT22;7711;46.634;14.318;2023-03-23T03:09:32;5.20;99.90
15217;DHT22;7711;46.634;14.318;2023-03-23T03:12:06;5.10;99.90
15217;DHT22;7711;46.634;14.318;2023-03-23T03:14:38;5.20;99.90
15217;DHT22;7711;46.634;14.318;2023-03-23T03:17:12;5.20;99.90
15217;DHT22;7711;46.634;14.318;2023-03-23T03:19:43;5.10;99.90
15217;DHT22;7711;46.634;14.318;2023-03-23T03:22:12;5.20;99.90
15217;DHT22;7711;46.634;14.318;2023-03-23T03:24:40;5.10;99.90
15217;DHT22;7711;46.634;14.318;2023-03-23T03:27:12;5.00;99.90
15217;DHT22;7711;46.634;14.318;2023-03-23T03:29:43;5.00;99.90
15217;DHT22;7711;46.634;14.318;2023-03-23T03:32:17;4.90;99.90
15217;DHT22;7711;46.634;14.318;2023-03-23T03:34:46;4.80;99.90
15217;DHT22;7711;46.634;14.318;2023-03-23T03:37:16;4.80;99.90
15217;DHT22;7711;46.634;14.318;2023-03-23T03:39:44;4.70;99.90
15217;DHT22;7711;46.634;14.318;2023-03-23T03:42:11;4.70;99.90
15217;DHT22;7711;46.634;14.318;2023-03-23T03:44:39;4.80;1.00
15217;DHT22;7711;46.634;14.318;2023-03-23T03:47:06;4.70;99.90
15217;DHT22;7711;46.634;14.318;2023-03-23T03:49:33;4.70;99.90
15217;DHT22;7711;46.634;14.318;2023-03-23T03:52:02;4.70;99.90
15217;DHT22;7711;46.634;14.318;2023-03-23T03:54:29;4.60;99.90
15217;DHT22;7711;46.634;14.318;2023-03-23T03:56:56;4.70;99.90
15217;DHT22;7711;46.634;14.318;2023-03-23T03:59:23;4.70;99.90
15217;DHT22;7711;46.634;14.318;2023-03-23T04:01:51;4.80;99.90
15217;DHT22;7711;46.634;14.318;2023-03-23T04:04:19;4.80;1.00
15217;DHT22;7711;46.634;14.318;2023-03-23T04:06:47;4.80;99.90
15217;DHT22;7711;46.634;14.318;2023-03-23T04:09:16;4.70;99.90
15217;DHT22;7711;46.634;14.318;2023-03-23T04:11:44;4.70;99.90
15217;DHT22;7711;46.634;14.318;2023-03-23T04:14:11;4.80;1.00
15217;DHT22;7711;46.634;14.318;2023-03-23T04:16:39;4.70;1.00
15217;DHT22;7711;46.634;14.318;2023-03-23T04:19:07;4.60;1.00
15217;DHT22;7711;46.634;14.318;2023-03-23T04:21:34;4.60;1.00
15217;DHT22;7711;46.634;14.318;2023-03-23T04:24:01;4.60;1.00
15217;DHT22;7711;46.634;14.318;2023-03-23T04:26:30;4.60;1.00
15217;DHT22;7711;46.634;14.318;2023-03-23T04:28:58;4.50;1.00
15217;DHT22;7711;46.634;14.318;2023-03-23T04:31:25;4.50;1.00
15217;DHT22;7711;46.634;14.318;2023-03-23T04:33:53;4.50;1.00
15217;DHT22;7711;46.634;14.318;2023-03-23T04:36:20;4.60;1.00
15217;DHT22;7711;46.634;14.318;2023-03-23T04:38:48;4.60;1.00
15217;DHT22;7711;46.634;14.318;2023-03-23T04:41:20;4.60;1.00
15217;DHT22;7711;46.634;14.318;2023-03-23T04:43:48;4.50;1.00
15217;DHT22;7711;46.634;14.318;2023-03-23T04:46:18;4.50;1.00
15217;DHT22;7711;46.634;14.318;2023-03-23T04:48:47;4.50;1.00
15217;DHT22;7711;46.634;14.318;2023-03-23T04:51:14;4.40;1.00
15217;DHT22;7711;46.634;14.318;2023-03-23T04:53:41;4.40;1.00
15217;DHT22;7711;46.634;14.318;2023-03-23T04:56:08;4.40;1.00
15217;DHT22;7711;46.634;14.318;2023-03-23T04:58:35;4.40;1.00
15217;DHT22;7711;46.634;14.318;2023-03-23T05:01:03;4.30;1.00
15217;DHT22;7711;46.634;14.318;2023-03-23T05:03:30;4.30;1.00
15217;DHT22;7711;46.634;14.318;2023-03-23T05:05:57;4.30;1.00
15217;DHT22;7711;46.634;14.318;2023-03-23T05:08:27;4.30;1.00
15217;DHT22;7711;46.634;14.318;2023-03-23T05:10:58;4.30;1.00
15217;DHT22;7711;46.634;14.318;2023-03-23T05:13:27;4.30;1.00
15217;DHT22;7711;46.634;14.318;2023-03-23T05:15:54;4.40;1.00
15217;DHT22;7711;46.634;14.318;2023-03-23T05:18:23;4.40;1.00
15217;DHT22;7711;46.634;14.318;2023-03-23T05:20:51;4.40;1.00
15217;DHT22;7711;46.634;14.318;2023-03-23T05:23:19;4.30;1.00
15217;DHT22;7711;46.634;14.318;2023-03-23T05:25:53;4.40;1.00
15217;DHT22;7711;46.634;14.318;2023-03-23T05:28:20;4.50;1.00
15217;DHT22;7711;46.634;14.318;2023-03-23T05:30:48;4.60;1.00
15217;DHT22;7711;46.634;14.318;2023-03-23T05:33:15;4.60;1.00
15217;DHT22;7711;46.634;14.318;2023-03-23T05:35:45;4.80;1.00
15217;DHT22;7711;46.634;14.318;2023-03-23T05:38:12;4.80;1.00
15217;DHT22;7711;46.634;14.318;2023-03-23T05:40:40;4.90;1.00
15217;DHT22;7711;46.634;14.318;2023-03-23T05:43:07;5.10;1.00
15217;DHT22;7711;46.634;14.318;2023-03-23T05:45:34;5.20;99.90
15217;DHT22;7711;46.634;14.318;2023-03-23T05:48:01;5.20;99.90
15217;DHT22;7711;46.634;14.318;2023-03-23T05:50:28;5.30;99.90
15217;DHT22;7711;46.634;14.318;2023-03-23T05:52:56;5.30;99.90
15217;DHT22;7711;46.634;14.318;2023-03-23T05:55:24;5.40;99.90
15217;DHT22;7711;46.634;14.318;2023-03-23T05:57:51;5.60;99.90
15217;DHT22;7711;46.634;14.318;2023-03-23T06:00:18;5.60;99.90
15217;DHT22;7711;46.634;14.318;2023-03-23T06:02:48;5.70;99.90
15217;DHT22;7711;46.634;14.318;2023-03-23T06:05:16;5.80;99.90
15217;DHT22;7711;46.634;14.318;2023-03-23T06:07:45;5.80;99.90
15217;DHT22;7711;46.634;14.318;2023-03-23T06:10:13;5.90;99.90
15217;DHT22;7711;46.634;14.318;2023-03-23T06:12:40;6.00;99.90
15217;DHT22;7711;46.634;14.318;2023-03-23T06:15:09;6.00;99.90
15217;DHT22;7711;46.634;14.318;2023-03-23T06:17:36;6.00;99.90
15217;DHT22;7711;46.634;14.318;2023-03-23T06:20:04;6.10;99.90
15217;DHT22;7711;46.634;14.318;2023-03-23T06:22:35;6.20;99.90
15217;DHT22;7711;46.634;14.318;2023-03-23T06:25:04;6.20;99.90
15217;DHT22;7711;46.634;14.318;2023-03-23T06:27:33;6.20;99.90
15217;DHT22;7711;46.634;14.318;2023-03-23T06:30:01;6.30;99.90
15217;DHT22;7711;46.634;14.318;2023-03-23T06:32:29;6.40;99.90
15217;DHT22;7711;46.634;14.318;2023-03-23T06:34:57;6.50;99.90
15217;DHT22;7711;46.634;14.318;2023-03-23T06:37:24;6.60;99.90
15217;DHT22;7711;46.634;14.318;2023-03-23T06:39:51;6.70;99.90
15217;DHT22;7711;46.634;14.318;2023-03-23T06:42:19;6.80;99.90
15217;DHT22;7711;46.634;14.318;2023-03-23T06:44:47;6.90;99.90
15217;DHT22;7711;46.634;14.318;2023-03-23T06:47:14;7.00;99.90
15217;DHT22;7711;46.634;14.318;2023-03-23T06:49:42;7.00;99.90
15217;DHT22;7711;46.634;14.318;2023-03-23T06:52:09;7.10;99.90
15217;DHT22;7711;46.634;14.318;2023-03-23T06:54:36;7.20;99.90
15217;DHT22;7711;46.634;14.318;2023-03-23T06:57:03;7.40;99.90
15217;DHT22;7711;46.634;14.318;2023-03-23T06:59:30;7.40;99.90
15217;DHT22;7711;46.634;14.318;2023-03-23T07:01:59;7.60;99.90
15217;DHT22;7711;46.634;14.318;2023-03-23T07:04:26;7.80;99.90
15217;DHT22;7711;46.634;14.318;2023-03-23T07:06:53;8.00;99.90
15217;DHT22;7711;46.634;14.318;2023-03-23T07:09:20;8.20;99.90
15217;DHT22;7711;46.634;14.318;2023-03-23T07:11:47;8.30;99.90
15217;DHT22;7711;46.634;14.318;2023-03-23T07:14:16;8.50;99.90
15217;DHT22;7711;46.634;14.318;2023-03-23T07:16:43;8.70;99.90
15217;DHT22;7711;46.634;14.318;2023-03-23T07:19:12;8.70;99.90
15217;DHT22;7711;46.634;14.318;2023-03-23T07:21:39;8.80;99.90
15217;DHT22;7711;46.634;14.318;2023-03-23T07:24:09;8.80;99.90
15217;DHT22;7711;46.634;14.318;2023-03-23T07:26:37;8.70;99.90
15217;DHT22;7711;46.634;14.318;2023-03-23T07:29:04;8.80;99.90
15217;DHT22;7711;46.634;14.318;2023-03-23T07:31:32;9.10;99.90
15217;DHT22;7711;46.634;14.318;2023-03-23T07:33:59;9.20;99.90
15217;DHT22;7711;46.634;14.318;2023-03-23T07:36:28;9.40;99.90
15217;DHT22;7711;46.634;14.318;2023-03-23T07:38:55;9.50;99.90
15217;DHT22;7711;46.634;14.318;2023-03-23T07:41:22;9.80;99.90
15217;DHT22;7711;46.634;14.318;2023-03-23T07:43:49;10.00;99.90
15217;DHT22;7711;46.634;14.318;2023-03-23T07:46:16;10.10;99.90
15217;DHT22;7711;46.634;14.318;2023-03-23T07:48:43;10.10;99.90
15217;DHT22;7711;46.634;14.318;2023-03-23T07:51:10;10.00;99.90
15217;DHT22;7711;46.634;14.318;2023-03-23T07:53:39;10.10;99.90
15217;DHT22;7711;46.634;14.318;2023-03-23T07:56:07;10.30;99.90
15217;DHT22;7711;46.634;14.318;2023-03-23T07:58:35;10.20;99.90
15217;DHT22;7711;46.634;14.318;2023-03-23T08:01:02;10.20;99.90
15217;DHT22;7711;46.634;14.318;2023-03-23T08:03:29;10.40;99.90
15217;DHT22;7711;46.634;14.318;2023-03-23T08:05:57;10.20;99.90
15217;DHT22;7711;46.634;14.318;2023-03-23T08:08:24;10.20;99.90
15217;DHT22;7711;46.634;14.318;2023-03-23T08:10:53;10.10;99.90
15217;DHT22;7711;46.634;14.318;2023-03-23T08:13:20;9.90;99.90
15217;DHT22;7711;46.634;14.318;2023-03-23T08:15:47;10.10;99.90
15217;DHT22;7711;46.634;14.318;2023-03-23T08:18:15;10.30;99.90
15217;DHT22;7711;46.634;14.318;2023-03-23T08:20:43;10.40;99.90
15217;DHT22;7711;46.634;14.318;2023-03-23T08:23:10;10.30;99.90
15217;DHT22;7711;46.634;14.318;2023-03-23T08:25:38;10.40;99.90
15217;DHT22;7711;46.634;14.318;2023-03-23T08:28:06;10.70;99.90
15217;DHT22;7711;46.634;14.318;2023-03-23T08:30:35;10.80;99.90
15217;DHT22;7711;46.634;14.318;2023-03-23T08:33:03;10.90;99.90
15217;DHT22;7711;46.634;14.318;2023-03-23T08:35:30;11.30;99.90
15217;DHT22;7711;46.634;14.318;2023-03-23T08:37:58;11.60;99.90
15217;DHT22;7711;46.634;14.318;2023-03-23T08:40:25;11.40;99.90
15217;DHT22;7711;46.634;14.318;2023-03-23T08:42:53;11.50;99.90
15217;DHT22;7711;46.634;14.318;2023-03-23T08:45:24;11.70;99.90
15217;DHT22;7711;46.634;14.318;2023-03-23T08:47:52;12.00;99.90
15217;DHT22;7711;46.634;14.318;2023-03-23T08:50:22;12.40;99.90
15217;DHT22;7711;46.634;14.318;2023-03-23T08:52:50;12.40;99.90
15217;DHT22;7711;46.634;14.318;2023-03-23T08:55:18;12.50;99.90
15217;DHT22;7711;46.634;14.318;2023-03-23T08:57:45;12.50;99.90
15217;DHT22;7711;46.634;14.318;2023-03-23T09:00:18;12.20;99.90
15217;DHT22;7711;46.634;14.318;2023-03-23T09:02:48;12.00;99.90
15217;DHT22;7711;46.634;14.318;2023-03-23T09:05:16;11.80;99.90
15217;DHT22;7711;46.634;14.318;2023-03-23T09:07:57;11.90;99.90
15217;DHT22;7711;46.634;14.318;2023-03-23T09:10:25;12.10;99.90
15217;DHT22;7711;46.634;14.318;2023-03-23T09:12:53;12.30;99.90
15217;DHT22;7711;46.634;14.318;2023-03-23T09:15:21;12.40;99.90
15217;DHT22;7711;46.634;14.318;2023-03-23T09:17:52;12.60;99.90
15217;DHT22;7711;46.634;14.318;2023-03-23T09:20:21;12.50;99.90
15217;DHT22;7711;46.634;14.318;2023-03-23T09:22:52;12.70;99.90
15217;DHT22;7711;46.634;14.318;2023-03-23T09:25:20;12.60;99.90
15217;DHT22;7711;46.634;14.318;2023-03-23T09:27:49;12.50;99.90
15217;DHT22;7711;46.634;14.318;2023-03-23T09:30:20;12.50;99.90
15217;DHT22;7711;46.634;14.318;2023-03-23T09:32:47;12.60;99.90
15217;DHT22;7711;46.634;14.318;2023-03-23T09:35:16;12.50;99.90
15217;DHT22;7711;46.634;14.318;2023-03-23T09:37:44;12.50;99.90
15217;DHT22;7711;46.634;14.318;2023-03-23T09:40:14;12.80;99.90
15217;DHT22;7711;46.634;14.318;2023-03-23T09:43:06;12.90;99.90
15217;DHT22;7711;46.634;14.318;2023-03-23T09:45:40;12.90;99.90
15217;DHT22;7711;46.634;14.318;2023-03-23T09:48:32;13.10;99.90
15217;DHT22;7711;46.634;14.318;2023-03-23T09:51:07;13.30;99.90
15217;DHT22;7711;46.634;14.318;2023-03-23T09:53:40;13.70;99.90
15217;DHT22;7711;46.634;14.318;2023-03-23T09:56:11;13.80;99.90
15217;DHT22;7711;46.634;14.318;2023-03-23T09:58:45;13.70;99.90
15217;DHT22;7711;46.634;14.318;2023-03-23T10:01:17;13.60;99.90
15217;DHT22;7711;46.634;14.318;2023-03-23T10:03:46;14.10;99.90
15217;DHT22;7711;46.634;14.318;2023-03-23T10:06:17;14.10;99.90
15217;DHT22;7711;46.634;14.318;2023-03-23T10:08:47;14.00;99.90
15217;DHT22;7711;46.634;14.318;2023-03-23T10:11:19;14.00;99.90
15217;DHT22;7711;46.634;14.318;2023-03-23T10:14:06;14.20;99.90
15217;DHT22;7711;46.634;14.318;2023-03-23T10:16:38;14.50;99.90
15217;DHT22;7711;46.634;14.318;2023-03-23T10:19:11;15.10;99.90
15217;DHT22;7711;46.634;14.318;2023-03-23T10:21:42;15.30;99.90
15217;DHT22;7711;46.634;14.318;2023-03-23T10:24:15;15.30;99.90
15217;DHT22;7711;46.634;14.318;2023-03-23T10:26:51;15.00;99.90
15217;DHT22;7711;46.634;14.318;2023-03-23T10:29:26;15.50;99.90
15217;DHT22;7711;46.634;14.318;2023-03-23T10:31:59;15.60;99.90
15217;DHT22;7711;46.634;14.318;2023-03-23T10:34:32;15.70;99.90
15217;DHT22;7711;46.634;14.318;2023-03-23T10:37:05;16.00;99.90
15217;DHT22;7711;46.634;14.318;2023-03-23T10:39:43;15.80;99.90
15217;DHT22;7711;46.634;14.318;2023-03-23T10:42:11;16.00;99.90
15217;DHT22;7711;46.634;14.318;2023-03-23T10:44:39;16.20;99.90
15217;DHT22;7711;46.634;14.318;2023-03-23T10:47:07;16.10;99.90
15217;DHT22;7711;46.634;14.318;2023-03-23T10:49:40;15.70;99.90
15217;DHT22;7711;46.634;14.318;2023-03-23T10:52:20;15.40;99.90
15217;DHT22;7711;46.634;14.318;2023-03-23T10:54:51;15.70;99.90
15217;DHT22;7711;46.634;14.318;2023-03-23T10:57:23;16.00;99.90
15217;DHT22;7711;46.634;14.318;2023-03-23T10:59:51;16.10;99.90
15217;DHT22;7711;46.634;14.318;2023-03-23T11:02:19;16.20;99.90
15217;DHT22;7711;46.634;14.318;2023-03-23T11:04:56;16.30;99.90
15217;DHT22;7711;46.634;14.318;2023-03-23T11:07:28;16.80;99.90
15217;DHT22;7711;46.634;14.318;2023-03-23T11:09:57;17.20;99.90
15217;DHT22;7711;46.634;14.318;2023-03-23T11:12:33;17.30;99.90
15217;DHT22;7711;46.634;14.318;2023-03-23T11:15:14;17.30;99.90
15217;DHT22;7711;46.634;14.318;2023-03-23T11:17:43;17.20;99.90
15217;DHT22;7711;46.634;14.318;2023-03-23T11:20:11;16.90;99.90
15217;DHT22;7711;46.634;14.318;2023-03-23T11:22:42;17.30;99.90
15217;DHT22;7711;46.634;14.318;2023-03-23T11:25:13;17.40;99.90
15217;DHT22;7711;46.634;14.318;2023-03-23T11:27:40;17.60;99.90
15217;DHT22;7711;46.634;14.318;2023-03-23T11:30:11;17.90;99.90
15217;DHT22;7711;46.634;14.318;2023-03-23T11:32:43;18.10;99.90
15217;DHT22;7711;46.634;14.318;2023-03-23T11:35:16;18.00;99.90
15217;DHT22;7711;46.634;14.318;2023-03-23T11:37:47;17.40;99.90
15217;DHT22;7711;46.634;14.318;2023-03-23T11:40:18;17.10;99.90
15217;DHT22;7711;46.634;14.318;2023-03-23T11:42:47;17.50;99.90
15217;DHT22;7711;46.634;14.318;2023-03-23T11:45:18;17.90;99.90
15217;DHT22;7711;46.634;14.318;2023-03-23T11:47:58;18.20;99.90
15217;DHT22;7711;46.634;14.318;2023-03-23T11:50:29;18.40;99.90
15217;DHT22;7711;46.634;14.318;2023-03-23T11:53:02;18.30;99.90
15217;DHT22;7711;46.634;14.318;2023-03-23T11:55:35;18.30;99.90
15217;DHT22;7711;46.634;14.318;2023-03-23T11:58:11;18.10;99.90
15217;DHT22;7711;46.634;14.318;2023-03-23T12:00:42;18.40;99.90
15217;DHT22;7711;46.634;14.318;2023-03-23T12:06:23;19.00;99.90
15217;DHT22;7711;46.634;14.318;2023-03-23T12:09:00;18.90;99.90
15217;DHT22;7711;46.634;14.318;2023-03-23T12:11:37;19.20;99.90
15217;DHT22;7711;46.634;14.318;2023-03-23T12:14:16;19.50;99.90
15217;DHT22;7711;46.634;14.318;2023-03-23T12:17:02;19.90;99.90
15217;DHT22;7711;46.634;14.318;2023-03-23T12:19:37;19.50;99.90
15217;DHT22;7711;46.634;14.318;2023-03-23T12:22:17;19.90;99.90
15217;DHT22;7711;46.634;14.318;2023-03-23T12:24:58;20.50;99.90
15217;DHT22;7711;46.634;14.318;2023-03-23T12:27:34;20.70;99.90
15217;DHT22;7711;46.634;14.318;2023-03-23T12:30:20;20.40;99.90
15217;DHT22;7711;46.634;14.318;2023-03-23T12:33:01;20.30;99.90
15217;DHT22;7711;46.634;14.318;2023-03-23T12:35:42;20.70;99.90
15217;DHT22;7711;46.634;14.318;2023-03-23T12:38:20;21.10;99.90
15217;DHT22;7711;46.634;14.318;2023-03-23T12:41:00;21.20;99.90
15217;DHT22;7711;46.634;14.318;2023-03-23T12:43:33;21.30;99.90
15217;DHT22;7711;46.634;14.318;2023-03-23T12:46:17;21.70;99.90
15217;DHT22;7711;46.634;14.318;2023-03-23T12:48:51;20.50;97.50
15217;DHT22;7711;46.634;14.318;2023-03-23T12:51:23;20.70;99.30
15217;DHT22;7711;46.634;14.318;2023-03-23T12:53:55;21.00;97.50
15217;DHT22;7711;46.634;14.318;2023-03-23T12:56:29;20.80;97.70
15217;DHT22;7711;46.634;14.318;2023-03-23T12:59:05;20.70;97.60
15217;DHT22;7711;46.634;14.318;2023-03-23T13:01:37;21.00;97.80
15217;DHT22;7711;46.634;14.318;2023-03-23T13:04:08;20.80;96.50
15217;DHT22;7711;46.634;14.318;2023-03-23T13:06:38;20.90;99.90
15217;DHT22;7711;46.634;14.318;2023-03-23T13:09:11;21.50;96.50
15217;DHT22;7711;46.634;14.318;2023-03-23T13:11:42;21.10;94.70
15217;DHT22;7711;46.634;14.318;2023-03-23T13:14:27;21.00;95.80
15217;DHT22;7711;46.634;14.318;2023-03-23T13:17:02;21.20;94.00
15217;DHT22;7711;46.634;14.318;2023-03-23T13:19:51;21.10;94.70
15217;DHT22;7711;46.634;14.318;2023-03-23T13:22:25;20.70;92.60
15217;DHT22;7711;46.634;14.318;2023-03-23T13:24:55;21.00;92.30
15217;DHT22;7711;46.634;14.318;2023-03-23T13:27:25;21.80;90.60
15217;DHT22;7711;46.634;14.318;2023-03-23T13:29:54;21.60;90.10
15217;DHT22;7711;46.634;14.318;2023-03-23T13:32:34;21.40;90.30
15217;DHT22;7711;46.634;14.318;2023-03-23T13:35:04;22.20;88.40
15217;DHT22;7711;46.634;14.318;2023-03-23T13:37:32;22.70;85.30
15217;DHT22;7711;46.634;14.318;2023-03-23T13:40:13;22.80;82.60
15217;DHT22;7711;46.634;14.318;2023-03-23T13:42:50;23.40;80.80
15217;DHT22;7711;46.634;14.318;2023-03-23T13:45:23;23.20;75.90
15217;DHT22;7711;46.634;14.318;2023-03-23T13:48:02;23.90;78.30
15217;DHT22;7711;46.634;14.318;2023-03-23T13:50:31;24.30;71.90
15217;DHT22;7711;46.634;14.318;2023-03-23T13:53:14;24.30;68.00
15217;DHT22;7711;46.634;14.318;2023-03-23T13:55:42;24.30;72.00
15217;DHT22;7711;46.634;14.318;2023-03-23T13:58:21;25.60;63.50
15217;DHT22;7711;46.634;14.318;2023-03-23T14:01:00;26.30;57.90
15217;DHT22;7711;46.634;14.318;2023-03-23T14:03:35;26.50;53.20
15217;DHT22;7711;46.634;14.318;2023-03-23T14:06:05;25.70;50.30
15217;DHT22;7711;46.634;14.318;2023-03-23T14:08:39;24.90;49.00
15217;DHT22;7711;46.634;14.318;2023-03-23T14:11:15;25.30;49.30
15217;DHT22;7711;46.634;14.318;2023-03-23T14:13:47;25.40;51.00
15217;DHT22;7711;46.634;14.318;2023-03-23T14:16:19;25.30;48.70
15217;DHT22;7711;46.634;14.318;2023-03-23T14:18:52;25.50;45.70
15217;DHT22;7711;46.634;14.318;2023-03-23T14:21:32;26.10;43.60
15217;DHT22;7711;46.634;14.318;2023-03-23T14:24:02;26.70;41.60
15217;DHT22;7711;46.634;14.318;2023-03-23T14:26:29;27.10;40.10
15217;DHT22;7711;46.634;14.318;2023-03-23T14:29:03;27.40;37.00
15217;DHT22;7711;46.634;14.318;2023-03-23T14:31:31;26.40;59.30
15217;DHT22;7711;46.634;14.318;2023-03-23T14:34:03;24.90;40.40
15217;DHT22;7711;46.634;14.318;2023-03-23T14:36:33;26.20;39.80
15217;DHT22;7711;46.634;14.318;2023-03-23T14:39:04;26.10;37.40
15217;DHT22;7711;46.634;14.318;2023-03-23T14:41:35;27.00;35.30
15217;DHT22;7711;46.634;14.318;2023-03-23T14:44:07;27.50;33.90
15217;DHT22;7711;46.634;14.318;2023-03-23T14:46:36;28.10;32.20
15217;DHT22;7711;46.634;14.318;2023-03-23T14:49:04;27.80;26.70
15217;DHT22;7711;46.634;14.318;2023-03-23T14:51:32;26.70;24.60
15217;DHT22;7711;46.634;14.318;2023-03-23T14:54:00;26.50;24.90
15217;DHT22;7711;46.634;14.318;2023-03-23T14:56:33;26.00;26.40
15217;DHT22;7711;46.634;14.318;2023-03-23T14:59:05;27.30;24.40
15217;DHT22;7711;46.634;14.318;2023-03-23T15:01:36;26.30;22.20
15217;DHT22;7711;46.634;14.318;2023-03-23T15:04:06;24.80;24.30
15217;DHT22;7711;46.634;14.318;2023-03-23T15:06:36;25.70;25.40
15217;DHT22;7711;46.634;14.318;2023-03-23T15:09:07;26.00;22.90
15217;DHT22;7711;46.634;14.318;2023-03-23T15:11:36;25.50;22.20
15217;DHT22;7711;46.634;14.318;2023-03-23T15:14:13;25.50;22.10
15217;DHT22;7711;46.634;14.318;2023-03-23T15:16:46;25.00;22.30
15217;DHT22;7711;46.634;14.318;2023-03-23T15:19:16;25.10;23.50
15217;DHT22;7711;46.634;14.318;2023-03-23T15:21:49;24.80;21.00
15217;DHT22;7711;46.634;14.318;2023-03-23T15:24:30;24.90;21.40
15217;DHT22;7711;46.634;14.318;2023-03-23T15:27:10;23.80;22.10
15217;DHT22;7711;46.634;14.318;2023-03-23T15:29:48;23.60;23.60
15217;DHT22;7711;46.634;14.318;2023-03-23T15:32:25;23.30;24.10
15217;DHT22;7711;46.634;14.318;2023-03-23T15:34:53;23.90;24.70
15217;DHT22;7711;46.634;14.318;2023-03-23T15:37:24;23.90;21.80
15217;DHT22;7711;46.634;14.318;2023-03-23T15:39:53;23.20;22.60
15217;DHT22;7711;46.634;14.318;2023-03-23T15:42:23;23.10;23.20
15217;DHT22;7711;46.634;14.318;2023-03-23T15:45:19;23.20;23.20
15217;DHT22;7711;46.634;14.318;2023-03-23T15:47:49;23.00;22.10
15217;DHT22;7711;46.634;14.318;2023-03-23T15:50:17;22.70;22.90
15217;DHT22;7711;46.634;14.318;2023-03-23T15:52:46;22.80;22.70
15217;DHT22;7711;46.634;14.318;2023-03-23T15:55:23;22.90;23.10
15217;DHT22;7711;46.634;14.318;2023-03-23T15:57:51;22.70;22.60
15217;DHT22;7711;46.634;14.318;2023-03-23T16:00:21;23.10;22.60
15217;DHT22;7711;46.634;14.318;2023-03-23T16:02:52;23.10;21.30
15217;DHT22;7711;46.634;14.318;2023-03-23T16:05:20;23.50;20.80
15217;DHT22;7711;46.634;14.318;2023-03-23T16:07:47;23.60;20.00
15217;DHT22;7711;46.634;14.318;2023-03-23T16:10:16;23.60;19.40
15217;DHT22;7711;46.634;14.318;2023-03-23T16:12:44;23.30;23.00